Time;durP1;ratioP1;P1;durP2;ratioP2;P2;SDS_P1;SDS_P2;PMS_P1;PMS_P2;Temp;Humidity;BMP_temperature;BMP_pressure;BME280_temperature;BME280_humidity;BME280_pressure;Samples;Min_cycle;Max_cycle;Signal;HPM_P1;HPM_P2
2024/02/03 00:02:24;;;;;;;1.63;1.58;;;5.90;99.90;;;;;;5049220;28;20037;-39
2024/02/03 00:04:49;;;;;;;1.52;1.40;;;6.00;99.90;;;;;;5040128;28;20036;-40
2024/02/03 00:07:15;;;;;;;1.48;1.40;;;6.00;99.90;;;;;;5043814;28;20102;-39
2024/02/03 00:09:41;;;;;;;2.40;1.95;;;6.10;99.90;;;;;;5040678;28;20028;-40
2024/02/03 00:12:08;;;;;;;1.52;1.42;;;6.10;99.90;;;;;;5045671;28;20048;-40
2024/02/03 00:14:34;;;;;;;0.90;0.90;;;6.30;99.90;;;;;;5045995;28;20021;-34
2024/02/03 00:17:00;;;;;;;0.80;0.80;;;6.40;99.90;;;;;;5044032;28;20032;-33
2024/02/03 00:19:25;;;;;;;1.30;1.05;;;6.50;99.90;;;;;;5040535;28;20847;-33
2024/02/03 00:21:51;;;;;;;1.05;1.00;;;6.50;99.90;;;;;;5042949;28;20033;-36
2024/02/03 00:24:17;;;;;;;1.08;1.05;;;6.50;99.90;;;;;;5046253;28;20036;-32
2024/02/03 00:26:42;;;;;;;1.00;1.00;;;6.50;99.90;;;;;;5044185;28;20111;-35
2024/02/03 00:29:08;;;;;;;1.27;1.17;;;6.50;99.90;;;;;;5046903;28;20490;-34
2024/02/03 00:31:34;;;;;;;1.27;1.27;;;6.60;99.90;;;;;;5044145;28;20044;-32
2024/02/03 00:33:59;;;;;;;1.42;1.15;;;6.50;99.90;;;;;;5047631;28;20036;-33
2024/02/03 00:36:25;;;;;;;1.20;1.20;;;6.40;99.90;;;;;;5045364;28;20120;-35
2024/02/03 00:38:51;;;;;;;1.50;1.40;;;6.30;99.90;;;;;;5042316;28;20110;-32
2024/02/03 00:41:18;;;;;;;1.80;1.40;;;6.30;99.90;;;;;;5044167;28;20044;-33
2024/02/03 00:43:43;;;;;;;1.35;1.25;;;6.30;99.90;;;;;;5043611;28;20167;-32
2024/02/03 00:46:10;;;;;;;1.02;1.02;;;6.30;99.90;;;;;;5044614;28;20120;-33
2024/02/03 00:48:36;;;;;;;1.17;1.17;;;6.30;99.90;;;;;;5046416;28;20032;-32
2024/02/03 00:51:02;;;;;;;0.90;0.90;;;6.20;99.90;;;;;;5046929;28;20150;-34
2024/02/03 00:53:27;;;;;;;1.27;1.17;;;6.20;99.90;;;;;;5045924;28;20159;-34
2024/02/03 00:55:53;;;;;;;1.92;1.27;;;6.20;99.90;;;;;;5043219;28;20028;-35
2024/02/03 00:58:19;;;;;;;4.82;1.60;;;6.10;99.90;;;;;;5055518;28;20033;-31
2024/02/03 01:00:45;;;;;;;1.95;1.85;;;6.20;99.90;;;;;;5041428;28;20040;-33
2024/02/03 01:03:10;;;;;;;1.63;1.50;;;6.20;99.90;;;;;;5042331;28;20021;-32
2024/02/03 01:05:37;;;;;;;1.27;1.17;;;6.10;99.90;;;;;;5043367;28;20341;-34
2024/02/03 01:08:03;;;;;;;1.65;1.55;;;6.00;99.90;;;;;;5042969;28;20375;-32
2024/02/03 01:10:29;;;;;;;1.85;1.50;;;6.00;99.90;;;;;;5042127;28;20031;-32
2024/02/03 01:12:54;;;;;;;1.83;1.33;;;6.00;99.90;;;;;;5041109;28;20032;-36
2024/02/03 01:15:20;;;;;;;1.45;0.93;;;6.00;99.90;;;;;;5041598;28;20047;-34
2024/02/03 01:17:46;;;;;;;1.30;1.20;;;6.00;99.90;;;;;;5044115;28;20043;-34
2024/02/03 01:20:11;;;;;;;1.25;1.15;;;6.00;99.90;;;;;;5043508;28;20386;-33
2024/02/03 01:22:37;;;;;;;1.15;1.05;;;6.00;99.90;;;;;;5041481;28;20052;-33
2024/02/03 01:25:03;;;;;;;1.23;1.20;;;6.00;99.90;;;;;;5044523;28;20037;-41
2024/02/03 01:27:29;;;;;;;1.50;1.40;;;6.00;99.90;;;;;;5045222;28;20029;-40
2024/02/03 01:29:56;;;;;;;1.20;1.20;;;6.00;99.90;;;;;;5040439;28;20032;-37
2024/02/03 01:32:22;;;;;;;1.75;1.10;;;6.00;99.90;;;;;;5040006;28;20049;-42
2024/02/03 01:34:47;;;;;;;1.70;1.40;;;6.00;99.90;;;;;;5043928;28;20062;-42
2024/02/03 01:37:13;;;;;;;1.17;1.02;;;6.00;99.90;;;;;;5039445;28;20033;-41
2024/02/03 01:39:40;;;;;;;0.90;0.90;;;6.00;99.90;;;;;;5039295;28;20031;-35
2024/02/03 01:42:06;;;;;;;0.85;0.85;;;6.00;99.90;;;;;;5043235;28;20020;-39
2024/02/03 01:44:32;;;;;;;1.20;1.20;;;6.00;99.90;;;;;;5047228;28;20128;-42
2024/02/03 01:46:59;;;;;;;1.85;1.20;;;6.00;99.90;;;;;;5037101;28;20052;-41
2024/02/03 01:49:30;;;;;;;0.95;0.95;;;6.00;99.90;;;;;;5044333;28;20039;-40
2024/02/03 01:51:57;;;;;;;1.30;1.20;;;6.00;99.90;;;;;;5044910;28;20110;-35
2024/02/03 01:54:24;;;;;;;0.85;0.85;;;5.90;99.90;;;;;;5041678;28;20541;-41
2024/02/03 01:56:51;;;;;;;0.98;0.98;;;5.90;99.90;;;;;;5045679;28;20160;-40
2024/02/03 01:59:18;;;;;;;0.80;0.80;;;5.90;99.90;;;;;;5045843;28;20896;-40
2024/02/03 02:01:45;;;;;;;0.90;0.90;;;5.90;99.90;;;;;;5042783;28;20048;-43
2024/02/03 02:04:11;;;;;;;1.75;1.38;;;5.90;99.90;;;;;;5043111;28;20014;-42
2024/02/03 02:06:37;;;;;;;1.08;1.08;;;5.90;99.90;;;;;;5044081;28;20029;-38
2024/02/03 02:09:02;;;;;;;1.38;1.20;;;5.90;99.90;;;;;;5042224;28;20049;-40
2024/02/03 02:11:28;;;;;;;2.88;1.38;;;5.90;99.90;;;;;;5044107;28;20040;-40
2024/02/03 02:13:54;;;;;;;1.30;1.00;;;5.80;99.90;;;;;;5042412;28;20029;-36
2024/02/03 02:16:20;;;;;;;2.03;1.45;;;5.90;99.90;;;;;;5041330;28;20029;-38
2024/02/03 02:18:45;;;;;;;1.20;1.20;;;5.90;99.90;;;;;;5040744;28;20044;-42
2024/02/03 02:21:11;;;;;;;1.80;1.10;;;5.90;99.90;;;;;;5046887;28;20027;-39
2024/02/03 02:23:37;;;;;;;0.95;0.95;;;6.00;99.90;;;;;;5042853;28;20032;-38
2024/02/03 02:26:02;;;;;;;0.82;0.82;;;6.00;99.90;;;;;;5043920;28;20103;-39
2024/02/03 02:28:28;;;;;;;1.58;1.10;;;6.10;99.90;;;;;;5043169;28;20379;-42
2024/02/03 02:30:54;;;;;;;1.23;1.15;;;6.20;99.90;;;;;;5050035;28;20029;-34
2024/02/03 02:33:19;;;;;;;1.02;1.00;;;6.30;99.90;;;;;;5041488;28;20041;-38
2024/02/03 02:35:49;;;;;;;1.63;0.88;;;6.20;99.90;;;;;;5049413;28;20059;-33
2024/02/03 02:38:16;;;;;;;4.55;1.33;;;6.20;99.90;;;;;;5043890;28;20479;-34
2024/02/03 02:40:42;;;;;;;1.50;1.40;;;6.20;99.90;;;;;;5049835;28;20016;-35
2024/02/03 02:43:07;;;;;;;0.98;0.98;;;6.20;99.90;;;;;;5047850;28;20399;-35
2024/02/03 02:45:33;;;;;;;1.25;1.13;;;6.20;99.90;;;;;;5061016;28;20029;-40
2024/02/03 02:47:59;;;;;;;1.30;1.20;;;6.10;99.90;;;;;;5045281;28;20021;-40
2024/02/03 02:50:24;;;;;;;1.10;1.10;;;6.10;99.90;;;;;;5048731;28;20087;-38
2024/02/03 02:52:50;;;;;;;3.00;1.55;;;6.00;99.90;;;;;;5047457;28;20036;-39
2024/02/03 02:55:16;;;;;;;1.13;1.00;;;6.10;99.90;;;;;;5047338;28;20371;-41
2024/02/03 02:57:41;;;;;;;1.42;1.17;;;6.00;99.90;;;;;;5045361;28;20029;-41
2024/02/03 03:00:09;;;;;;;0.93;0.90;;;6.00;99.90;;;;;;5045095;28;20407;-38
2024/02/03 03:02:35;;;;;;;1.10;1.05;;;5.90;99.90;;;;;;5041924;28;20079;-40
2024/02/03 03:05:01;;;;;;;0.70;0.70;;;5.90;99.90;;;;;;5044185;28;20029;-37
2024/02/03 03:07:26;;;;;;;1.17;1.00;;;6.00;99.90;;;;;;5045583;28;20056;-40
2024/02/03 03:09:52;;;;;;;1.42;1.33;;;6.00;99.90;;;;;;5044308;28;20029;-40
2024/02/03 03:12:18;;;;;;;1.63;1.20;;;6.00;99.90;;;;;;5044417;28;20037;-40
2024/02/03 03:14:43;;;;;;;1.10;1.10;;;6.00;99.90;;;;;;5043876;28;20513;-39
2024/02/03 03:17:09;;;;;;;1.45;0.90;;;6.00;99.90;;;;;;5040322;28;20037;-40
2024/02/03 03:19:37;;;;;;;1.02;1.02;;;6.00;99.90;;;;;;5044796;28;20040;-40
2024/02/03 03:22:03;;;;;;;1.45;1.35;;;6.00;99.90;;;;;;5042404;28;20086;-40
2024/02/03 03:24:29;;;;;;;1.52;1.10;;;5.90;99.90;;;;;;5042552;28;20086;-40
2024/02/03 03:26:55;;;;;;;1.38;1.27;;;5.80;99.90;;;;;;5042203;28;20021;-39
2024/02/03 03:29:21;;;;;;;0.90;0.90;;;5.90;99.90;;;;;;5043783;28;20291;-41
2024/02/03 03:31:46;;;;;;;1.40;1.30;;;5.80;99.90;;;;;;5044277;28;20031;-40
2024/02/03 03:34:12;;;;;;;1.80;1.70;;;5.80;99.90;;;;;;5041625;28;20494;-37
2024/02/03 03:36:37;;;;;;;1.27;1.00;;;5.80;99.90;;;;;;5041579;28;20035;-40
2024/02/03 03:39:03;;;;;;;0.93;0.93;;;5.90;99.90;;;;;;5039659;28;20099;-40
2024/02/03 03:41:29;;;;;;;1.55;1.10;;;5.90;99.90;;;;;;5041330;28;20075;-38
2024/02/03 03:43:54;;;;;;;1.30;1.20;;;5.90;99.90;;;;;;5043824;28;20021;-37
2024/02/03 03:46:20;;;;;;;0.98;0.98;;;5.80;99.90;;;;;;5042852;28;20028;-33
2024/02/03 03:48:46;;;;;;;0.90;0.80;;;5.70;99.90;;;;;;5042081;28;20541;-33
2024/02/03 03:51:11;;;;;;;1.98;1.52;;;5.70;99.90;;;;;;5040835;28;20076;-32
2024/02/03 03:53:37;;;;;;;1.10;1.02;;;5.60;99.90;;;;;;5044889;28;20064;-32
2024/02/03 03:56:03;;;;;;;1.98;1.23;;;5.60;99.90;;;;;;5041437;28;20029;-38
2024/02/03 03:58:28;;;;;;;1.27;1.23;;;5.50;99.90;;;;;;5022617;28;20418;-41
2024/02/03 04:00:54;;;;;;;1.35;1.25;;;5.50;99.90;;;;;;5039582;28;20061;-38
2024/02/03 04:03:19;;;;;;;1.55;1.33;;;5.40;99.90;;;;;;5027516;28;20030;-41
2024/02/03 04:05:45;;;;;;;1.05;1.05;;;5.50;99.90;;;;;;5021301;28;20037;-40
2024/02/03 04:08:11;;;;;;;1.73;1.23;;;5.40;99.90;;;;;;5022584;28;20021;-39
2024/02/03 04:10:37;;;;;;;2.35;1.65;;;5.40;99.90;;;;;;5020840;28;20036;-40
2024/02/03 04:13:02;;;;;;;1.40;1.23;;;5.40;99.90;;;;;;5019353;28;20396;-40
2024/02/03 04:15:29;;;;;;;1.58;1.30;;;5.30;99.90;;;;;;5026663;28;20033;-40
2024/02/03 04:17:57;;;;;;;1.60;1.50;;;5.30;99.90;;;;;;5022975;28;20064;-35
2024/02/03 04:20:24;;;;;;;1.77;1.67;;;5.30;99.90;;;;;;5015706;28;20483;-36
2024/02/03 04:22:49;;;;;;;1.80;1.38;;;5.30;99.90;;;;;;5020316;28;20026;-39
2024/02/03 04:25:15;;;;;;;1.60;1.17;;;5.20;99.90;;;;;;5026707;28;20487;-40
2024/02/03 04:27:40;;;;;;;2.67;1.80;;;5.20;99.90;;;;;;5016452;28;20462;-40
2024/02/03 04:30:06;;;;;;;2.10;1.90;;;5.20;99.90;;;;;;5019558;28;20033;-41
2024/02/03 04:32:32;;;;;;;1.30;1.20;;;5.20;99.90;;;;;;5022129;28;20033;-41
2024/02/03 04:34:58;;;;;;;2.17;1.45;;;5.20;99.90;;;;;;5024285;28;20054;-40
2024/02/03 04:37:24;;;;;;;2.15;1.48;;;5.10;99.90;;;;;;5021868;28;20025;-38
2024/02/03 04:39:49;;;;;;;1.10;1.08;;;5.10;99.90;;;;;;5022385;28;20037;-39
2024/02/03 04:42:15;;;;;;;1.63;1.52;;;5.10;99.90;;;;;;5025114;28;20472;-41
2024/02/03 04:44:41;;;;;;;1.60;1.50;;;5.00;99.90;;;;;;5023089;28;20029;-40
2024/02/03 04:47:07;;;;;;;2.08;1.70;;;5.00;99.90;;;;;;5022505;28;20087;-41
2024/02/03 04:49:33;;;;;;;1.05;1.05;;;5.00;99.90;;;;;;5021893;28;20064;-38
2024/02/03 04:52:00;;;;;;;3.55;1.38;;;5.00;99.90;;;;;;5020758;28;20030;-39
2024/02/03 04:54:27;;;;;;;1.70;1.60;;;5.00;99.90;;;;;;5019062;28;20116;-32
2024/02/03 04:56:53;;;;;;;1.42;1.25;;;5.00;99.90;;;;;;5019126;28;20056;-33
2024/02/03 04:59:18;;;;;;;1.33;1.23;;;4.90;99.90;;;;;;5025301;28;20111;-32
2024/02/03 05:01:44;;;;;;;1.45;1.13;;;4.90;99.90;;;;;;5033619;28;20106;-37
2024/02/03 05:04:10;;;;;;;1.52;1.20;;;4.90;99.90;;;;;;5041791;28;20029;-31
2024/02/03 05:06:36;;;;;;;1.60;1.50;;;4.90;99.90;;;;;;5038663;28;20029;-33
2024/02/03 05:09:02;;;;;;;2.17;1.30;;;4.90;99.90;;;;;;5037166;28;20032;-33
2024/02/03 05:11:28;;;;;;;3.83;1.65;;;4.80;99.90;;;;;;5040900;28;20037;-32
2024/02/03 05:13:53;;;;;;;1.77;1.48;;;4.90;99.90;;;;;;5038745;28;20029;-33
2024/02/03 05:16:19;;;;;;;1.90;1.63;;;4.80;99.90;;;;;;5043358;28;20471;-33
2024/02/03 05:18:45;;;;;;;1.30;1.27;;;4.80;99.90;;;;;;5042200;28;20025;-32
2024/02/03 05:21:10;;;;;;;2.95;1.65;;;4.80;99.90;;;;;;5033676;28;20033;-33
2024/02/03 05:23:36;;;;;;;1.77;1.60;;;4.80;99.90;;;;;;5046612;28;20024;-32
2024/02/03 05:26:02;;;;;;;1.60;1.50;;;4.80;99.90;;;;;;5043454;28;20064;-33
2024/02/03 05:28:27;;;;;;;2.00;1.58;;;4.70;99.90;;;;;;5040988;28;20021;-33
2024/02/03 05:30:53;;;;;;;1.90;1.80;;;4.70;99.90;;;;;;5041048;28;20091;-37
2024/02/03 05:33:19;;;;;;;1.88;1.60;;;4.70;99.90;;;;;;5049301;28;20356;-33
2024/02/03 05:35:45;;;;;;;1.63;1.40;;;4.60;99.90;;;;;;5042183;28;20033;-33
2024/02/03 05:38:10;;;;;;;3.10;1.52;;;4.60;99.90;;;;;;5046073;28;20079;-32
2024/02/03 05:40:36;;;;;;;1.55;1.45;;;4.50;99.90;;;;;;5042424;28;20037;-32
2024/02/03 05:43:01;;;;;;;1.77;1.60;;;4.50;99.90;;;;;;5047314;28;20017;-34
2024/02/03 05:45:27;;;;;;;2.35;1.90;;;4.50;99.90;;;;;;5041122;28;20184;-33
2024/02/03 05:47:53;;;;;;;2.42;1.90;;;4.40;99.90;;;;;;5044854;28;20025;-35
2024/02/03 05:50:18;;;;;;;2.38;2.00;;;4.40;99.90;;;;;;5047176;28;20029;-35
2024/02/03 05:52:44;;;;;;;2.15;1.95;;;4.30;99.90;;;;;;5041887;28;20613;-34
2024/02/03 05:55:10;;;;;;;2.83;1.98;;;4.40;99.90;;;;;;5043589;28;20029;-32
2024/02/03 05:57:55;;;;;;;3.13;2.30;;;4.30;99.90;;;;;;5046283;28;20033;-32
2024/02/03 06:00:21;;;;;;;7.07;3.88;;;4.30;99.90;;;;;;5045384;28;20103;-35
2024/02/03 06:02:47;;;;;;;12.88;11.63;;;4.20;99.90;;;;;;5045191;28;20382;-33
2024/02/03 06:05:13;;;;;;;11.90;10.80;;;4.30;99.90;;;;;;5042626;28;20033;-32
2024/02/03 06:07:39;;;;;;;8.52;7.82;;;4.20;99.90;;;;;;5047881;28;20094;-34
2024/02/03 06:10:06;;;;;;;8.30;7.63;;;4.20;99.90;;;;;;5046358;28;20044;-36
2024/02/03 06:12:32;;;;;;;5.30;4.65;;;4.10;99.90;;;;;;5041194;28;20060;-33
2024/02/03 06:14:57;;;;;;;5.18;4.68;;;4.00;99.90;;;;;;5048510;28;20643;-32
2024/02/03 06:17:23;;;;;;;7.13;5.35;;;4.00;99.90;;;;;;5049577;28;20032;-37
2024/02/03 06:19:50;;;;;;;31.65;15.50;;;4.00;99.90;;;;;;5044139;28;20352;-32
2024/02/03 06:22:16;;;;;;;33.13;13.32;;;4.00;99.90;;;;;;5044621;28;20032;-32
2024/02/03 06:24:41;;;;;;;31.17;13.32;;;4.00;99.90;;;;;;5043843;28;20656;-34
2024/02/03 06:27:07;;;;;;;15.65;8.23;;;3.90;99.90;;;;;;5039521;28;20041;-33
2024/02/03 06:29:33;;;;;;;7.82;4.78;;;3.90;99.90;;;;;;5044475;28;20033;-33
2024/02/03 06:31:58;;;;;;;6.25;3.72;;;3.90;99.90;;;;;;5050120;28;20124;-33
2024/02/03 06:34:24;;;;;;;7.32;5.40;;;3.80;99.90;;;;;;5047683;28;20156;-34
2024/02/03 06:36:50;;;;;;;5.90;3.90;;;3.80;99.90;;;;;;5044669;28;20034;-32
2024/02/03 06:39:15;;;;;;;3.03;2.72;;;3.80;99.90;;;;;;5046880;28;20033;-32
2024/02/03 06:41:41;;;;;;;3.78;2.90;;;3.80;99.90;;;;;;5046660;28;20041;-35
2024/02/03 06:44:09;;;;;;;2.00;1.80;;;3.80;99.90;;;;;;5046423;28;20041;-34
2024/02/03 06:46:34;;;;;;;4.30;1.90;;;3.80;99.90;;;;;;5050118;28;20044;-35
2024/02/03 06:49:00;;;;;;;2.30;2.13;;;3.80;99.90;;;;;;5041979;28;20498;-32
2024/02/03 06:51:26;;;;;;;3.15;1.80;;;3.80;99.90;;;;;;5046808;28;20483;-33
2024/02/03 06:53:51;;;;;;;3.60;2.08;;;3.80;99.90;;;;;;5043427;28;20070;-34
2024/02/03 06:56:17;;;;;;;1.73;1.60;;;3.80;99.90;;;;;;5049086;28;20506;-32
2024/02/03 06:58:42;;;;;;;2.55;2.15;;;3.80;99.90;;;;;;5044196;28;20159;-34
2024/02/03 07:01:08;;;;;;;3.22;2.60;;;3.80;99.90;;;;;;5044078;28;20029;-33
2024/02/03 07:03:34;;;;;;;2.75;2.20;;;3.80;99.90;;;;;;5042049;28;20036;-33
2024/02/03 07:05:59;;;;;;;2.45;2.10;;;3.80;99.90;;;;;;5042391;28;20518;-34
2024/02/03 07:08:25;;;;;;;3.10;1.63;;;3.80;99.90;;;;;;5040039;28;20096;-32
2024/02/03 07:10:51;;;;;;;2.10;1.67;;;3.80;99.90;;;;;;5045187;28;20040;-34
2024/02/03 07:13:16;;;;;;;2.38;2.00;;;3.70;99.90;;;;;;5046226;28;20028;-33
2024/02/03 07:15:42;;;;;;;2.45;1.52;;;3.80;99.90;;;;;;5050017;28;20021;-40
2024/02/03 07:18:07;;;;;;;1.98;1.60;;;3.80;99.90;;;;;;5043715;28;20029;-43
2024/02/03 07:20:33;;;;;;;2.85;1.58;;;3.90;99.90;;;;;;5041825;28;20025;-42
2024/02/03 07:22:59;;;;;;;0.98;0.98;;;4.00;99.90;;;;;;5063677;28;20391;-41
2024/02/03 07:25:25;;;;;;;2.35;1.70;;;4.20;99.90;;;;;;5046717;28;20025;-32
2024/02/03 07:27:50;;;;;;;1.42;1.33;;;4.30;99.90;;;;;;5046512;28;20033;-32
2024/02/03 07:30:16;;;;;;;3.80;1.30;;;4.40;99.90;;;;;;5041243;28;20102;-32
2024/02/03 07:32:42;;;;;;;3.17;1.95;;;4.50;99.90;;;;;;5052324;28;20052;-32
2024/02/03 07:35:08;;;;;;;1.70;1.60;;;4.60;99.90;;;;;;5047829;28;20049;-33
2024/02/03 07:37:35;;;;;;;2.75;1.50;;;4.70;99.90;;;;;;5045607;28;20103;-35
2024/02/03 07:40:01;;;;;;;1.20;1.10;;;4.70;99.90;;;;;;5040167;28;20067;-32
2024/02/03 07:42:26;;;;;;;1.10;1.10;;;4.80;99.90;;;;;;5043428;28;20021;-35
2024/02/03 07:44:52;;;;;;;1.27;1.23;;;4.90;99.90;;;;;;5046916;28;20043;-33
2024/02/03 07:47:17;;;;;;;1.20;1.20;;;4.90;99.90;;;;;;5044361;28;20057;-36
2024/02/03 07:49:43;;;;;;;1.70;1.60;;;4.90;99.90;;;;;;5043837;28;20550;-32
2024/02/03 07:52:09;;;;;;;1.80;1.70;;;5.00;99.90;;;;;;5043050;28;20648;-33
2024/02/03 07:54:34;;;;;;;1.40;1.30;;;5.00;99.90;;;;;;5059647;28;20040;-33
2024/02/03 07:57:00;;;;;;;1.58;1.48;;;5.10;99.90;;;;;;5048065;28;20510;-33
2024/02/03 07:59:27;;;;;;;1.70;1.60;;;5.20;99.90;;;;;;5041529;28;20373;-32
2024/02/03 08:01:53;;;;;;;1.42;1.33;;;5.20;99.90;;;;;;5043304;28;20091;-33
2024/02/03 08:04:18;;;;;;;2.05;1.90;;;5.30;99.90;;;;;;5052139;28;20446;-32
2024/02/03 08:06:44;;;;;;;1.77;1.67;;;5.30;99.90;;;;;;5042681;28;20029;-33
2024/02/03 08:09:10;;;;;;;1.50;1.40;;;5.40;99.90;;;;;;5043133;28;20024;-31
2024/02/03 08:11:36;;;;;;;1.52;1.42;;;5.50;99.90;;;;;;5044183;28;20048;-35
2024/02/03 08:14:01;;;;;;;1.58;1.50;;;5.50;99.90;;;;;;5042893;28;20041;-33
2024/02/03 08:16:27;;;;;;;1.73;1.63;;;5.60;99.90;;;;;;5043852;28;20472;-33
2024/02/03 08:18:52;;;;;;;1.20;1.17;;;5.60;99.90;;;;;;5043562;28;20047;-34
2024/02/03 08:21:19;;;;;;;2.45;1.70;;;5.70;99.90;;;;;;5043402;28;20036;-32
2024/02/03 08:23:45;;;;;;;1.85;1.60;;;5.60;99.90;;;;;;5043087;28;20387;-31
2024/02/03 08:26:12;;;;;;;2.53;2.00;;;5.70;99.90;;;;;;5036000;28;20029;-38
2024/02/03 08:28:38;;;;;;;3.28;1.67;;;5.70;99.90;;;;;;5038769;28;20039;-39
2024/02/03 08:31:03;;;;;;;1.83;1.73;;;5.70;99.90;;;;;;5041031;28;20938;-33
2024/02/03 08:33:31;;;;;;;2.05;1.85;;;5.70;99.90;;;;;;5043446;28;20033;-33
2024/02/03 08:35:57;;;;;;;3.22;1.92;;;5.80;99.90;;;;;;5044187;28;20069;-36
2024/02/03 08:38:23;;;;;;;2.08;1.88;;;6.00;99.90;;;;;;5047596;28;20021;-34
2024/02/03 08:40:49;;;;;;;2.45;2.25;;;6.10;99.90;;;;;;5046682;28;20029;-32
2024/02/03 08:43:15;;;;;;;3.15;1.83;;;6.10;99.90;;;;;;5042469;28;20747;-36
2024/02/03 08:45:41;;;;;;;2.15;1.90;;;6.20;99.90;;;;;;5041618;28;20056;-34
2024/02/03 08:48:07;;;;;;;1.50;1.40;;;6.30;99.90;;;;;;5042098;28;20036;-33
2024/02/03 08:50:33;;;;;;;2.00;1.80;;;6.40;99.90;;;;;;5043069;28;20025;-34
2024/02/03 08:52:59;;;;;;;1.80;1.48;;;6.40;99.90;;;;;;5040873;28;20041;-34
2024/02/03 08:55:24;;;;;;;1.50;1.40;;;6.50;99.90;;;;;;5039353;28;20706;-34
2024/02/03 08:57:50;;;;;;;2.08;1.90;;;6.60;99.90;;;;;;5044022;28;20029;-35
2024/02/03 09:00:16;;;;;;;2.65;1.83;;;6.70;99.90;;;;;;5044265;28;20040;-39
2024/02/03 09:02:41;;;;;;;3.63;1.50;;;6.70;99.90;;;;;;5044900;28;20086;-33
2024/02/03 09:05:07;;;;;;;2.55;1.83;;;6.80;99.90;;;;;;5044869;28;20505;-32
2024/02/03 09:07:35;;;;;;;2.70;1.63;;;7.00;99.90;;;;;;5041685;28;20582;-33
2024/02/03 09:10:05;;;;;;;2.17;2.00;;;7.10;99.90;;;;;;5038886;28;20033;-33
2024/02/03 09:12:30;;;;;;;1.35;1.25;;;7.10;99.90;;;;;;5038653;28;20495;-34
2024/02/03 09:14:56;;;;;;;3.17;2.05;;;7.10;99.90;;;;;;5042436;28;20044;-31
2024/02/03 09:17:22;;;;;;;1.90;1.27;;;7.20;99.90;;;;;;5044634;28;20054;-33
2024/02/03 09:19:48;;;;;;;2.45;2.25;;;7.20;99.90;;;;;;5038733;28;20025;-32
2024/02/03 09:22:14;;;;;;;3.63;1.90;;;7.30;99.90;;;;;;5044949;28;20094;-33
2024/02/03 09:24:40;;;;;;;1.92;1.70;;;7.30;99.90;;;;;;5049743;28;20036;-34
2024/02/03 09:27:07;;;;;;;2.33;1.98;;;7.40;99.90;;;;;;5040165;28;20025;-35
2024/02/03 09:29:32;;;;;;;3.55;2.10;;;7.50;99.90;;;;;;5044237;28;20120;-35
2024/02/03 09:31:58;;;;;;;2.30;1.85;;;7.60;99.90;;;;;;5040722;28;20112;-35
2024/02/03 09:34:26;;;;;;;2.20;2.00;;;7.60;99.90;;;;;;5045936;28;20568;-36
2024/02/03 09:36:52;;;;;;;2.00;1.85;;;7.60;99.90;;;;;;5040697;28;20033;-33
2024/02/03 09:39:17;;;;;;;3.28;2.55;;;7.70;99.90;;;;;;5037314;28;22342;-32
2024/02/03 09:41:43;;;;;;;2.90;2.30;;;7.70;99.90;;;;;;5041372;28;21791;-33
2024/02/03 09:44:09;;;;;;;5.65;2.53;;;7.70;99.90;;;;;;5044021;28;20490;-34
2024/02/03 09:46:35;;;;;;;3.78;2.35;;;7.80;99.90;;;;;;5036035;28;20029;-41
2024/02/03 09:49:01;;;;;;;3.40;2.38;;;7.80;99.90;;;;;;5038679;28;20040;-40
2024/02/03 09:51:30;;;;;;;5.22;2.90;;;7.80;99.90;;;;;;5039651;28;20455;-38
2024/02/03 09:53:57;;;;;;;2.45;2.03;;;7.90;99.90;;;;;;5042834;28;20037;-41
2024/02/03 09:56:23;;;;;;;2.90;2.60;;;7.80;99.90;;;;;;5041890;28;20710;-41
2024/02/03 09:58:48;;;;;;;2.42;1.98;;;7.80;99.90;;;;;;5041286;28;20028;-38
2024/02/03 10:01:14;;;;;;;2.40;2.20;;;7.80;99.90;;;;;;5037004;28;20026;-38
2024/02/03 10:03:45;;;;;;;2.60;2.30;;;7.80;99.90;;;;;;5023768;28;20098;-41
2024/02/03 10:06:13;;;;;;;4.00;2.60;;;7.80;99.90;;;;;;5041601;28;20104;-40
2024/02/03 10:08:39;;;;;;;2.58;1.90;;;8.00;99.90;;;;;;5036538;28;20026;-43
2024/02/03 10:11:05;;;;;;;3.67;2.35;;;8.00;99.90;;;;;;5039569;28;20021;-42
2024/02/03 10:13:32;;;;;;;2.22;1.95;;;8.00;99.90;;;;;;5040375;28;20033;-41
2024/02/03 10:16:03;;;;;;;3.72;2.10;;;8.00;99.90;;;;;;5043747;28;20418;-40
2024/02/03 10:18:31;;;;;;;1.90;1.80;;;8.10;99.90;;;;;;5038386;28;20127;-38
2024/02/03 10:20:59;;;;;;;;;;;8.10;99.90;;;;;;5039607;28;20037;-40
2024/02/03 10:23:25;;;;;;;4.47;2.80;;;8.10;99.90;;;;;;5038849;28;19912;-40
2024/02/03 10:25:59;;;;;;;4.85;2.55;;;8.10;99.90;;;;;;5041205;28;20112;-40
2024/02/03 10:28:25;;;;;;;2.58;2.33;;;8.00;99.90;;;;;;5038400;28;20040;-41
2024/02/03 10:30:53;;;;;;;3.28;2.80;;;8.00;99.90;;;;;;5039802;28;20395;-39
2024/02/03 10:33:19;;;;;;;3.03;2.50;;;8.00;99.90;;;;;;5038972;28;20021;-41
2024/02/03 10:35:47;;;;;;;2.83;1.42;;;8.00;99.90;;;;;;5035718;28;20084;-40
2024/02/03 10:38:13;;;;;;;4.40;2.90;;;8.20;99.90;;;;;;5052310;28;20036;-39
2024/02/03 10:40:39;;;;;;;3.22;2.13;;;8.10;99.90;;;;;;5042638;28;20037;-40
2024/02/03 10:43:22;;;;;;;3.45;3.00;;;8.20;99.90;;;;;;5035014;28;20433;-41
2024/02/03 10:45:53;;;;;;;4.32;3.00;;;8.20;99.90;;;;;;5045732;28;20429;-32
2024/02/03 10:48:19;;;;;;;4.43;2.92;;;8.20;99.90;;;;;;5045067;28;20036;-32
2024/02/03 10:50:57;;;;;;;4.55;2.85;;;8.20;99.90;;;;;;5047230;28;20032;-31
2024/02/03 10:53:32;;;;;;;4.70;2.20;;;8.30;99.90;;;;;;5042026;28;20033;-34
2024/02/03 10:56:03;;;;;;;5.13;3.15;;;8.40;99.90;;;;;;5049006;28;20111;-39
2024/02/03 10:58:30;;;;;;;6.85;2.63;;;8.30;99.90;;;;;;5044206;28;20094;-39
2024/02/03 11:00:57;;;;;;;4.53;2.80;;;8.40;99.90;;;;;;5042875;28;20045;-35
2024/02/03 11:03:23;;;;;;;3.22;2.92;;;8.40;99.90;;;;;;5045441;28;20037;-37
2024/02/03 11:05:53;;;;;;;3.70;2.90;;;8.40;99.90;;;;;;5043433;28;20372;-30
2024/02/03 11:08:22;;;;;;;3.22;2.45;;;8.50;99.90;;;;;;5050335;28;20052;-31
2024/02/03 11:10:50;;;;;;;2.97;2.67;;;8.50;99.90;;;;;;5040988;28;20364;-31
2024/02/03 11:13:22;;;;;;;5.70;3.10;;;8.70;99.90;;;;;;5046313;28;20025;-35
2024/02/03 11:15:54;;;;;;;4.70;2.92;;;8.80;99.90;;;;;;5044428;28;20025;-31
2024/02/03 11:18:19;;;;;;;3.05;2.15;;;8.80;99.90;;;;;;5038717;28;20032;-31
2024/02/03 11:20:45;;;;;;;1.67;1.58;;;8.90;99.90;;;;;;5042406;28;20082;-34
2024/02/03 11:23:14;;;;;;;4.22;2.65;;;9.00;99.90;;;;;;5045237;28;20029;-33
2024/02/03 11:25:46;;;;;;;2.40;2.00;;;9.20;99.90;;;;;;5034580;28;20021;-35
2024/02/03 11:28:12;;;;;;;3.28;2.38;;;9.30;99.90;;;;;;5042268;28;20119;-31
2024/02/03 11:30:38;;;;;;;1.65;1.55;;;9.20;99.90;;;;;;5035696;28;20052;-31
2024/02/03 11:33:08;;;;;;;1.77;1.65;;;9.30;99.90;;;;;;5046221;28;20024;-30
2024/02/03 11:35:35;;;;;;;3.72;1.75;;;9.30;99.90;;;;;;5040324;28;20051;-33
2024/02/03 11:38:08;;;;;;;2.67;1.58;;;9.50;99.90;;;;;;5029856;28;20138;-33
2024/02/03 11:40:46;;;;;;;2.30;1.73;;;9.60;99.90;;;;;;5036783;28;20475;-30
2024/02/03 11:43:13;;;;;;;4.15;1.80;;;9.70;99.90;;;;;;5036273;28;20083;-32
2024/02/03 11:45:48;;;;;;;1.90;1.50;;;9.80;99.40;;;;;;5036678;28;20618;-32
2024/02/03 11:48:15;;;;;;;2.80;1.95;;;9.80;99.90;;;;;;5038157;28;20344;-36
2024/02/03 11:50:41;;;;;;;3.45;2.30;;;9.90;99.50;;;;;;5041517;28;20032;-33
2024/02/03 11:53:07;;;;;;;2.55;2.15;;;9.90;99.90;;;;;;5041728;28;20029;-31
2024/02/03 11:55:34;;;;;;;2.42;1.90;;;10.00;99.70;;;;;;5035950;28;20487;-37
2024/02/03 11:57:59;;;;;;;2.22;2.03;;;10.00;99.90;;;;;;5040783;28;20551;-39
2024/02/03 12:00:25;;;;;;;1.50;1.40;;;10.00;99.90;;;;;;5036904;28;20025;-39
2024/02/03 12:02:51;;;;;;;2.25;1.90;;;10.10;99.90;;;;;;5037022;28;20037;-41
2024/02/03 12:05:18;;;;;;;2.70;1.70;;;10.10;98.90;;;;;;5036513;28;20531;-38
2024/02/03 12:07:44;;;;;;;1.88;1.73;;;10.40;95.20;;;;;;5033343;28;20565;-38
2024/02/03 12:10:10;;;;;;;1.75;1.58;;;10.50;98.20;;;;;;5031975;28;20373;-38
2024/02/03 12:12:35;;;;;;;1.50;1.40;;;10.50;94.60;;;;;;5037551;28;20033;-37
2024/02/03 12:15:02;;;;;;;1.38;1.27;;;10.50;98.30;;;;;;5042320;28;20028;-38
2024/02/03 12:17:27;;;;;;;3.13;1.65;;;10.60;98.30;;;;;;5026672;28;20082;-38
2024/02/03 12:19:54;;;;;;;1.05;1.00;;;10.60;93.80;;;;;;5033203;28;20025;-38
2024/02/03 12:22:20;;;;;;;1.75;1.20;;;10.70;98.50;;;;;;5029536;28;20726;-39
2024/02/03 12:24:47;;;;;;;1.60;1.30;;;10.90;94.90;;;;;;5039924;28;20057;-35
2024/02/03 12:27:13;;;;;;;1.40;1.30;;;11.00;91.80;;;;;;5034824;28;20033;-36
2024/02/03 12:29:40;;;;;;;1.83;1.40;;;11.00;92.50;;;;;;5033258;28;20033;-38
2024/02/03 12:32:06;;;;;;;2.50;1.50;;;11.00;91.20;;;;;;5035681;28;20038;-39
2024/02/03 12:34:32;;;;;;;1.88;1.58;;;10.90;93.60;;;;;;5036333;28;20038;-38
2024/02/03 12:36:58;;;;;;;2.42;1.10;;;10.80;91.30;;;;;;5036220;28;20025;-39
2024/02/03 12:39:24;;;;;;;1.30;1.20;;;11.00;93.00;;;;;;5037742;28;20144;-36
2024/02/03 12:41:49;;;;;;;1.00;1.00;;;11.00;91.00;;;;;;5034660;28;20512;-38
2024/02/03 12:44:15;;;;;;;2.33;1.58;;;11.00;90.00;;;;;;5035470;28;20140;-40
2024/02/03 12:46:41;;;;;;;1.17;1.10;;;11.00;92.50;;;;;;5035758;28;20089;-38
2024/02/03 12:49:06;;;;;;;1.35;1.23;;;11.00;91.90;;;;;;5033857;28;20394;-38
2024/02/03 12:51:32;;;;;;;1.73;1.42;;;11.00;90.30;;;;;;5035818;28;20104;-35